createdAt,value
2019-02-15T00:00:02.895Z,5.64
2019-02-15T00:02:31.435Z,5.59
2019-02-15T00:04:59.793Z,5.59
2019-02-15T00:07:28.277Z,5.59
2019-02-15T00:09:56.776Z,5.58
2019-02-15T00:12:25.177Z,5.55
2019-02-15T00:14:53.560Z,5.54
2019-02-15T00:17:23.653Z,5.48
2019-02-15T00:19:53.673Z,5.46
2019-02-15T00:22:22.057Z,5.46
2019-02-15T00:24:52.139Z,5.48
2019-02-15T00:27:20.691Z,5.43
2019-02-15T00:29:49.117Z,5.45
2019-02-15T00:32:17.590Z,5.42
2019-02-15T00:34:46.045Z,5.43
2019-02-15T00:37:14.403Z,5.41
2019-02-15T00:39:42.882Z,5.39
2019-02-15T00:42:11.299Z,5.25
2019-02-15T00:44:39.698Z,5.24
2019-02-15T00:47:15.266Z,5.24
2019-02-15T00:49:45.599Z,5.26
2019-02-15T00:52:15.685Z,5.19
2019-02-15T00:54:45.772Z,5.15
2019-02-15T00:57:18.750Z,5.00
2019-02-15T00:59:51.207Z,4.88
2019-02-15T01:02:27.075Z,4.74
2019-02-15T01:05:00.254Z,4.84
2019-02-15T01:07:46.471Z,4.88
2019-02-15T01:10:19.483Z,4.93
2019-02-15T01:12:49.600Z,4.98
2019-02-15T01:15:18.050Z,4.99
2019-02-15T01:17:46.483Z,5.01
2019-02-15T01:20:14.942Z,5.02
2019-02-15T01:22:43.523Z,5.04
2019-02-15T01:25:12.046Z,5.02
2019-02-15T01:27:47.579Z,4.96
2019-02-15T01:30:33.677Z,4.94
2019-02-15T01:33:03.745Z,4.95
2019-02-15T01:35:33.902Z,4.93
2019-02-15T01:38:21.782Z,4.92
2019-02-15T01:40:57.742Z,4.92
2019-02-15T01:43:39.805Z,4.89
2019-02-15T01:46:08.713Z,4.88
2019-02-15T01:48:37.193Z,4.89
2019-02-15T01:51:05.706Z,4.88
2019-02-15T01:53:34.166Z,4.83
2019-02-15T01:56:02.643Z,4.77
2019-02-15T01:58:31.080Z,4.73
2019-02-15T02:00:59.626Z,4.75
2019-02-15T02:03:28.158Z,4.73
2019-02-15T02:05:56.892Z,4.72
2019-02-15T02:08:28.373Z,4.66
2019-02-15T02:10:56.971Z,4.63
2019-02-15T02:13:25.360Z,4.64
2019-02-15T02:15:53.846Z,4.65
2019-02-15T02:18:22.275Z,4.69
2019-02-15T02:20:50.756Z,4.71
2019-02-15T02:23:19.231Z,4.68
2019-02-15T02:25:47.688Z,4.69
2019-02-15T02:28:16.229Z,4.64
2019-02-15T02:30:44.649Z,4.66
2019-02-15T02:33:13.119Z,4.66
2019-02-15T02:35:41.565Z,4.66
2019-02-15T02:38:10.012Z,4.59
2019-02-15T02:40:38.526Z,4.60
2019-02-15T02:43:07.263Z,4.59
2019-02-15T02:45:35.694Z,4.59
2019-02-15T02:48:04.243Z,4.59
2019-02-15T02:50:32.651Z,4.56
2019-02-15T02:53:01.056Z,4.51
2019-02-15T02:55:29.583Z,4.48
2019-02-15T02:57:57.976Z,4.48
2019-02-15T03:00:33.175Z,4.48
2019-02-15T03:02:56.590Z,4.47
2019-02-15T03:05:24.949Z,4.45
2019-02-15T03:07:53.699Z,4.41
2019-02-15T03:10:22.154Z,4.43
2019-02-15T03:12:50.562Z,4.40
2019-02-15T03:15:19.030Z,4.38
2019-02-15T03:17:47.400Z,4.36
2019-02-15T03:20:16.064Z,4.37
2019-02-15T03:22:44.749Z,4.36
2019-02-15T03:25:13.311Z,4.34
2019-02-15T03:27:41.763Z,4.25
2019-02-15T03:30:10.391Z,4.25
2019-02-15T03:32:38.867Z,4.11
2019-02-15T03:35:09.255Z,4.09
2019-02-15T03:37:55.251Z,4.13
2019-02-15T03:40:25.271Z,4.16
2019-02-15T03:42:53.725Z,4.21
2019-02-15T03:45:22.203Z,4.21
2019-02-15T03:47:50.615Z,4.25
2019-02-15T03:50:19.431Z,4.23
2019-02-15T03:52:48.211Z,4.23
2019-02-15T03:55:16.645Z,4.22
2019-02-15T03:57:45.375Z,4.24
2019-02-15T04:00:13.968Z,4.22
2019-02-15T04:02:42.415Z,4.20
2019-02-15T04:05:10.967Z,4.20
2019-02-15T04:07:39.508Z,4.17
2019-02-15T04:10:09.537Z,4.16
2019-02-15T04:12:37.976Z,4.16
2019-02-15T04:15:07.502Z,4.14
2019-02-15T04:17:36.158Z,4.12
2019-02-15T04:20:07.003Z,4.09
2019-02-15T04:22:35.455Z,4.08
2019-02-15T04:25:04.448Z,4.09
2019-02-15T04:27:32.904Z,4.10
2019-02-15T04:30:01.331Z,4.07
2019-02-15T04:32:29.698Z,4.08
2019-02-15T04:34:58.163Z,4.08
2019-02-15T04:37:26.545Z,4.08
2019-02-15T04:39:54.931Z,4.10
2019-02-15T04:42:23.392Z,4.08
2019-02-15T04:44:51.885Z,4.07
2019-02-15T04:47:20.333Z,4.04
2019-02-15T04:49:48.781Z,3.98
2019-02-15T04:52:17.186Z,3.96
2019-02-15T04:54:45.659Z,3.97
2019-02-15T04:57:14.128Z,3.95
2019-02-15T04:59:42.634Z,3.94
2019-02-15T05:02:11.110Z,3.97
2019-02-15T05:04:39.578Z,3.96
2019-02-15T05:07:08.049Z,3.95
2019-02-15T05:09:36.506Z,3.95
2019-02-15T05:12:05.101Z,3.97
2019-02-15T05:14:33.461Z,3.94
2019-02-15T05:17:01.866Z,3.93
2019-02-15T05:19:30.227Z,3.93
2019-02-15T05:21:58.909Z,3.90
2019-02-15T05:24:27.294Z,3.90
2019-02-15T05:26:55.747Z,3.86
2019-02-15T05:29:24.445Z,3.85
2019-02-15T05:31:52.900Z,3.84
2019-02-15T05:34:21.632Z,3.82
2019-02-15T05:36:50.083Z,3.81
2019-02-15T05:39:18.589Z,3.81
2019-02-15T05:41:47.297Z,3.80
2019-02-15T05:44:16.383Z,3.79
2019-02-15T05:46:44.874Z,3.80
2019-02-15T05:49:13.285Z,3.81
2019-02-15T05:51:41.941Z,3.73
2019-02-15T05:54:10.393Z,3.67
2019-02-15T05:56:38.844Z,3.67
2019-02-15T05:59:07.229Z,3.67
2019-02-15T06:01:35.943Z,3.70
2019-02-15T06:04:04.772Z,3.71
2019-02-15T06:06:33.403Z,3.71
2019-02-15T06:09:01.857Z,3.71
2019-02-15T06:11:30.274Z,3.70
2019-02-15T06:13:58.689Z,3.71
2019-02-15T06:16:27.161Z,3.70
2019-02-15T06:18:55.569Z,3.63
2019-02-15T06:21:24.050Z,3.58
2019-02-15T06:23:52.458Z,3.60
2019-02-15T06:26:20.884Z,3.61
2019-02-15T06:28:49.338Z,3.63
2019-02-15T06:31:17.839Z,3.59
2019-02-15T06:33:46.275Z,3.59
2019-02-15T06:36:14.655Z,3.59
2019-02-15T06:38:43.092Z,3.59
2019-02-15T06:41:12.399Z,3.55
2019-02-15T06:43:42.870Z,3.57
2019-02-15T06:46:11.275Z,3.59
2019-02-15T06:48:39.735Z,3.59
2019-02-15T06:51:08.258Z,3.58
2019-02-15T06:53:36.705Z,3.57
2019-02-15T06:56:05.803Z,3.55
2019-02-15T06:58:35.595Z,3.55
2019-02-15T07:01:05.687Z,3.56
2019-02-15T07:03:43.695Z,3.58
2019-02-15T07:06:11.803Z,3.58
2019-02-15T07:08:40.196Z,3.62
2019-02-15T07:11:08.560Z,3.61
2019-02-15T07:13:37.087Z,3.52
2019-02-15T07:16:05.483Z,3.48
2019-02-15T07:18:34.195Z,3.32
2019-02-15T07:21:02.578Z,3.37
2019-02-15T07:23:31.325Z,3.35
2019-02-15T07:25:59.853Z,3.32
2019-02-15T07:28:28.611Z,3.31
2019-02-15T07:30:57.040Z,3.24
2019-02-15T07:33:25.519Z,3.12
2019-02-15T07:35:53.984Z,3.23
2019-02-15T07:38:22.714Z,3.17
2019-02-15T07:40:51.168Z,3.13
2019-02-15T07:43:19.934Z,3.07
2019-02-15T07:45:48.340Z,3.09
2019-02-15T07:48:16.780Z,3.20
2019-02-15T07:50:45.219Z,3.29
2019-02-15T07:53:13.672Z,3.40
2019-02-15T07:55:42.407Z,3.50
2019-02-15T07:58:11.281Z,3.60
2019-02-15T08:00:39.688Z,3.67
2019-02-15T08:03:08.147Z,3.77
2019-02-15T08:05:36.614Z,3.81
2019-02-15T08:08:05.169Z,3.90
2019-02-15T08:10:33.557Z,3.95
2019-02-15T08:13:01.986Z,3.98
2019-02-15T08:15:36.214Z,4.05
2019-02-15T08:18:00.793Z,4.09
2019-02-15T08:20:29.544Z,4.18
2019-02-15T08:22:57.997Z,4.23
2019-02-15T08:25:26.477Z,4.29
2019-02-15T08:27:54.940Z,4.38
2019-02-15T08:30:23.710Z,4.41
2019-02-15T08:32:52.518Z,4.49
2019-02-15T08:35:21.000Z,4.60
2019-02-15T08:37:49.458Z,4.66
2019-02-15T08:40:18.111Z,4.72
2019-02-15T08:42:46.648Z,4.80
2019-02-15T08:45:15.391Z,4.88
2019-02-15T08:47:43.809Z,4.96
2019-02-15T08:50:12.616Z,5.02
2019-02-15T08:52:41.073Z,5.09
2019-02-15T08:55:11.480Z,5.15
2019-02-15T08:57:40.008Z,5.20
2019-02-15T09:00:12.812Z,5.28
2019-02-15T09:02:41.557Z,5.39
2019-02-15T09:05:11.868Z,5.49
2019-02-15T09:07:40.407Z,5.56
2019-02-15T09:10:10.706Z,5.64
2019-02-15T09:12:39.072Z,5.70
2019-02-15T09:15:13.568Z,5.79
2019-02-15T09:17:42.073Z,5.90
2019-02-15T09:20:11.897Z,5.97
2019-02-15T09:22:40.361Z,6.04
2019-02-15T09:25:10.809Z,6.10
2019-02-15T09:27:43.649Z,6.17
2019-02-15T09:30:14.249Z,6.23
2019-02-15T09:32:42.764Z,6.30
2019-02-15T09:35:12.422Z,6.34
2019-02-15T09:37:40.927Z,6.42
2019-02-15T09:40:12.090Z,6.49
2019-02-15T09:42:40.618Z,6.54
2019-02-15T09:45:11.943Z,6.66
2019-02-15T09:47:40.413Z,6.78
2019-02-15T09:50:12.027Z,6.82
2019-02-15T09:52:40.392Z,6.89
2019-02-15T09:55:09.217Z,6.94
2019-02-15T09:57:37.662Z,7.03
2019-02-15T10:00:08.683Z,7.15
2019-02-15T10:02:37.136Z,7.29
2019-02-15T10:05:06.963Z,7.32
2019-02-15T10:07:35.488Z,7.36
2019-02-15T10:10:05.338Z,7.37
2019-02-15T10:12:34.088Z,7.39
2019-02-15T10:15:02.439Z,7.43
2019-02-15T10:17:30.840Z,7.46
2019-02-15T10:19:59.225Z,7.51
2019-02-15T10:22:27.941Z,7.64
2019-02-15T10:24:56.331Z,7.70
2019-02-15T10:27:25.060Z,7.74
2019-02-15T10:29:53.589Z,7.90
2019-02-15T10:32:22.095Z,7.95
2019-02-15T10:34:50.593Z,8.09
2019-02-15T10:37:18.913Z,8.23
2019-02-15T10:39:47.320Z,8.31
2019-02-15T10:42:15.774Z,8.39
2019-02-15T10:44:44.307Z,8.46
2019-02-15T10:47:14.484Z,8.48
2019-02-15T10:49:43.100Z,8.50
2019-02-15T10:52:11.479Z,8.52
2019-02-15T10:54:40.191Z,8.71
2019-02-15T10:57:08.626Z,8.86
2019-02-15T10:59:37.138Z,8.98
2019-02-15T11:02:05.731Z,9.11
2019-02-15T11:04:34.408Z,9.15
2019-02-15T11:07:02.886Z,9.18
2019-02-15T11:09:31.651Z,9.22
2019-02-15T11:12:00.124Z,9.26
2019-02-15T11:14:28.500Z,9.31
2019-02-15T11:16:56.953Z,9.28
2019-02-15T11:19:25.465Z,9.25
2019-02-15T11:21:53.921Z,9.24
2019-02-15T11:24:22.679Z,9.26
2019-02-15T11:26:51.157Z,9.30
2019-02-15T11:29:19.530Z,9.46
2019-02-15T11:31:48.072Z,9.66
2019-02-15T11:34:16.514Z,9.81
2019-02-15T11:36:44.994Z,9.88
2019-02-15T11:39:13.467Z,10.08
2019-02-15T11:41:42.088Z,10.19
2019-02-15T11:44:10.558Z,10.23
2019-02-15T11:46:38.961Z,10.26
2019-02-15T11:49:07.402Z,10.30
2019-02-15T11:51:35.846Z,10.38
2019-02-15T11:54:04.439Z,10.41
2019-02-15T11:56:33.194Z,10.33
2019-02-15T11:59:01.600Z,10.30
2019-02-15T12:01:30.194Z,10.37
2019-02-15T12:03:58.701Z,10.33
2019-02-15T12:06:27.092Z,10.30
2019-02-15T12:08:55.453Z,10.27
2019-02-15T12:11:23.861Z,10.33
2019-02-15T12:13:52.578Z,10.33
2019-02-15T12:16:21.106Z,10.39
2019-02-15T12:18:49.562Z,10.40
2019-02-15T12:21:18.042Z,10.46
2019-02-15T12:23:46.489Z,10.65
2019-02-15T12:26:15.070Z,10.75
2019-02-15T12:28:43.509Z,10.78
2019-02-15T12:31:12.036Z,10.83
2019-02-15T12:33:40.496Z,10.76
2019-02-15T12:36:09.037Z,10.92
2019-02-15T12:38:37.511Z,10.97
2019-02-15T12:41:06.002Z,10.98
2019-02-15T12:43:34.432Z,10.98
2019-02-15T12:46:03.233Z,10.95
2019-02-15T12:48:31.641Z,11.00
2019-02-15T12:51:00.096Z,10.99
2019-02-15T12:53:28.503Z,11.02
2019-02-15T12:55:56.929Z,11.18
2019-02-15T12:58:25.493Z,11.16
2019-02-15T13:00:53.967Z,11.16
2019-02-15T13:03:22.362Z,11.16
2019-02-15T13:05:50.827Z,11.24
2019-02-15T13:08:19.210Z,11.29
2019-02-15T13:10:47.580Z,11.35
2019-02-15T13:13:16.089Z,11.37
2019-02-15T13:15:44.528Z,11.34
2019-02-15T13:18:12.970Z,11.32
2019-02-15T13:20:41.443Z,11.34
2019-02-15T13:23:10.085Z,11.41
2019-02-15T13:25:38.818Z,11.51
2019-02-15T13:28:07.269Z,11.51
2019-02-15T13:30:35.900Z,11.60
2019-02-15T13:33:04.424Z,11.61
2019-02-15T13:35:32.891Z,11.68
2019-02-15T13:38:01.275Z,11.66
2019-02-15T13:40:30.080Z,11.61
2019-02-15T13:42:58.595Z,11.56
2019-02-15T13:45:29.372Z,11.51
2019-02-15T13:47:57.263Z,11.52
2019-02-15T13:50:25.663Z,11.52
2019-02-15T13:52:54.113Z,11.55
2019-02-15T13:55:22.661Z,11.50
2019-02-15T13:57:51.121Z,11.42
2019-02-15T14:00:19.570Z,11.41
2019-02-15T14:02:48.217Z,11.42
2019-02-15T14:05:16.741Z,11.37
2019-02-15T14:07:45.282Z,11.39
2019-02-15T14:10:14.840Z,11.36
2019-02-15T14:12:43.244Z,11.41
2019-02-15T14:15:12.171Z,11.44
2019-02-15T14:17:44.736Z,11.47
2019-02-15T14:20:12.244Z,11.56
2019-02-15T14:22:40.892Z,11.75
2019-02-15T14:25:11.393Z,11.87
2019-02-15T14:27:40.175Z,11.85
2019-02-15T14:30:14.853Z,11.84
2019-02-15T14:32:45.145Z,11.83
2019-02-15T14:35:14.563Z,11.91
2019-02-15T14:37:43.074Z,11.90
2019-02-15T14:40:12.695Z,11.78
2019-02-15T14:42:41.435Z,11.67
2019-02-15T14:45:11.409Z,11.85
2019-02-15T14:47:40.053Z,12.08
2019-02-15T14:50:09.871Z,11.98
2019-02-15T14:52:38.962Z,11.81
2019-02-15T14:55:09.273Z,11.68
2019-02-15T14:57:37.765Z,11.56
2019-02-15T15:00:15.929Z,11.54
2019-02-15T15:02:44.768Z,11.49
2019-02-15T15:05:16.054Z,11.37
2019-02-15T15:07:44.508Z,11.29
2019-02-15T15:10:13.163Z,11.23
2019-02-15T15:12:41.672Z,11.15
2019-02-15T15:15:15.536Z,11.09
2019-02-15T15:17:43.997Z,11.01
2019-02-15T15:20:13.343Z,10.95
2019-02-15T15:22:41.848Z,10.89
2019-02-15T15:25:14.399Z,10.83
2019-02-15T15:27:42.929Z,10.77
2019-02-15T15:30:14.301Z,10.74
2019-02-15T15:32:42.957Z,10.71
2019-02-15T15:35:12.212Z,10.74
2019-02-15T15:37:40.790Z,10.71
2019-02-15T15:40:11.731Z,10.63
2019-02-15T15:42:40.194Z,10.58
2019-02-15T15:45:10.914Z,10.61
2019-02-15T15:47:39.586Z,10.55
2019-02-15T15:50:10.199Z,10.49
2019-02-15T15:52:38.781Z,10.57
2019-02-15T15:55:09.910Z,10.67
2019-02-15T15:57:38.277Z,10.74
2019-02-15T16:00:14.742Z,10.77
2019-02-15T16:02:43.851Z,10.76
2019-02-15T16:05:12.526Z,10.80
2019-02-15T16:07:43.252Z,10.78
2019-02-15T16:10:12.663Z,10.86
2019-02-15T16:12:41.102Z,10.90
2019-02-15T16:15:11.572Z,10.94
2019-02-15T16:17:40.086Z,10.94
2019-02-15T16:20:10.723Z,10.88
2019-02-15T16:22:39.300Z,10.81
2019-02-15T16:25:08.902Z,10.70
2019-02-15T16:27:37.357Z,10.56
2019-02-15T16:30:12.230Z,10.45
2019-02-15T16:32:40.788Z,10.33
2019-02-15T16:35:09.721Z,10.21
2019-02-15T16:37:38.193Z,10.12
2019-02-15T16:40:14.851Z,10.04
2019-02-15T16:42:43.482Z,9.95
2019-02-15T16:45:16.254Z,9.88
2019-02-15T16:47:44.816Z,9.81
2019-02-15T16:50:13.734Z,9.74
2019-02-15T16:52:42.200Z,9.68
2019-02-15T16:55:13.202Z,9.64
2019-02-15T16:57:41.169Z,9.60
2019-02-15T17:00:11.787Z,9.54
2019-02-15T17:02:40.388Z,9.47
2019-02-15T17:05:09.160Z,9.44
2019-02-15T17:07:37.775Z,9.40
2019-02-15T17:10:10.873Z,9.37
2019-02-15T17:12:39.441Z,9.31
2019-02-15T17:15:11.045Z,9.28
2019-02-15T17:17:39.614Z,9.26
2019-02-15T17:20:09.446Z,9.22
2019-02-15T17:22:37.929Z,9.18
2019-02-15T17:25:12.794Z,9.15
2019-02-15T17:27:41.383Z,9.12
2019-02-15T17:30:12.910Z,9.08
2019-02-15T17:32:41.351Z,9.06
2019-02-15T17:35:17.049Z,9.02
2019-02-15T17:37:45.576Z,9.00
2019-02-15T17:40:17.412Z,8.97
2019-02-15T17:42:45.941Z,8.94
2019-02-15T17:45:14.510Z,8.91
2019-02-15T17:47:43.027Z,8.90
2019-02-15T17:50:12.259Z,8.88
2019-02-15T17:52:40.740Z,8.86
2019-02-15T17:55:10.161Z,8.82
2019-02-15T17:57:39.037Z,8.80
2019-02-15T18:00:12.642Z,8.77
2019-02-15T18:02:41.540Z,8.74
2019-02-15T18:05:12.271Z,8.73
2019-02-15T18:07:40.759Z,8.69
2019-02-15T18:10:09.211Z,8.67
2019-02-15T18:12:37.767Z,8.64
2019-02-15T18:15:06.764Z,8.61
2019-02-15T18:17:35.401Z,8.59
2019-02-15T18:20:04.793Z,8.58
2019-02-15T18:22:33.188Z,8.55
2019-02-15T18:25:01.736Z,8.52
2019-02-15T18:27:30.123Z,8.50
2019-02-15T18:29:58.529Z,8.48
2019-02-15T18:32:27.328Z,8.45
2019-02-15T18:34:55.998Z,8.43
2019-02-15T18:37:24.591Z,8.42
2019-02-15T18:39:53.177Z,8.41
2019-02-15T18:42:21.634Z,8.37
2019-02-15T18:44:50.173Z,8.37
2019-02-15T18:47:18.561Z,8.36
2019-02-15T18:49:47.441Z,8.35
2019-02-15T18:52:15.973Z,8.34
2019-02-15T18:54:44.340Z,8.32
2019-02-15T18:57:12.811Z,8.31
2019-02-15T18:59:41.189Z,8.30
2019-02-15T19:02:09.777Z,8.29
2019-02-15T19:04:38.278Z,8.26
2019-02-15T19:07:06.694Z,8.24
2019-02-15T19:09:35.159Z,8.22
2019-02-15T19:12:03.764Z,8.20
2019-02-15T19:14:32.281Z,8.17
2019-02-15T19:17:00.648Z,8.14
2019-02-15T19:19:29.522Z,8.14
2019-02-15T19:21:58.055Z,8.13
2019-02-15T19:24:26.503Z,8.23
2019-02-15T19:26:54.865Z,8.41
2019-02-15T19:29:23.279Z,8.49
2019-02-15T19:31:51.639Z,8.49
2019-02-15T19:34:20.113Z,8.53
2019-02-15T19:36:48.827Z,8.52
2019-02-15T19:39:17.310Z,8.51
2019-02-15T19:41:45.674Z,8.52
2019-02-15T19:44:14.143Z,8.54
2019-02-15T19:46:42.826Z,8.55
2019-02-15T19:49:11.191Z,8.55
2019-02-15T19:51:39.686Z,8.55
2019-02-15T19:54:08.158Z,8.55
2019-02-15T19:56:36.591Z,8.51
2019-02-15T19:59:04.991Z,8.48
2019-02-15T20:01:33.636Z,8.51
2019-02-15T20:04:02.186Z,8.49
2019-02-15T20:06:30.738Z,8.47
2019-02-15T20:08:59.172Z,8.46
2019-02-15T20:11:28.506Z,8.41
2019-02-15T20:13:56.960Z,8.40
2019-02-15T20:16:25.705Z,8.33
2019-02-15T20:18:54.178Z,8.36
2019-02-15T20:21:22.580Z,8.33
2019-02-15T20:23:51.330Z,8.32
2019-02-15T20:26:19.756Z,8.30
2019-02-15T20:28:48.170Z,8.31
2019-02-15T20:31:16.609Z,8.30
2019-02-15T20:33:45.070Z,8.29
2019-02-15T20:36:13.525Z,8.32
2019-02-15T20:38:42.238Z,8.27
2019-02-15T20:41:10.672Z,8.23
2019-02-15T20:43:39.628Z,8.23
2019-02-15T20:46:08.100Z,8.21
2019-02-15T20:48:36.540Z,8.16
2019-02-15T20:51:05.374Z,8.13
2019-02-15T20:53:33.867Z,8.08
2019-02-15T20:56:02.272Z,8.06
2019-02-15T20:58:30.686Z,8.07
2019-02-15T21:00:59.206Z,8.06
2019-02-15T21:03:27.657Z,8.05
2019-02-15T21:05:56.017Z,7.97
2019-02-15T21:08:26.535Z,7.95
2019-02-15T21:10:55.704Z,7.94
2019-02-15T21:13:24.190Z,7.91
2019-02-15T21:15:52.594Z,7.90
2019-02-15T21:18:20.998Z,7.90
2019-02-15T21:20:49.430Z,7.89
2019-02-15T21:23:17.846Z,7.86
2019-02-15T21:25:46.610Z,7.87
2019-02-15T21:28:15.416Z,7.86
2019-02-15T21:30:43.890Z,7.86
2019-02-15T21:33:12.325Z,7.85
2019-02-15T21:35:41.039Z,7.86
2019-02-15T21:38:09.563Z,7.83
2019-02-15T21:40:38.096Z,7.78
2019-02-15T21:43:06.542Z,7.76
2019-02-15T21:45:35.263Z,7.77
2019-02-15T21:48:03.701Z,7.75
2019-02-15T21:50:32.117Z,7.72
2019-02-15T21:53:00.735Z,7.69
2019-02-15T21:55:29.177Z,7.68
2019-02-15T21:58:01.600Z,7.65
2019-02-15T22:00:28.341Z,7.60
2019-02-15T22:02:56.766Z,7.59
2019-02-15T22:05:25.217Z,7.58
2019-02-15T22:07:53.661Z,7.56
2019-02-15T22:10:22.502Z,7.56
2019-02-15T22:12:50.925Z,7.53
2019-02-15T22:15:19.722Z,7.51
2019-02-15T22:17:48.313Z,7.47
2019-02-15T22:20:26.014Z,7.43
2019-02-15T22:22:47.868Z,7.42
2019-02-15T22:25:16.473Z,7.40
2019-02-15T22:27:44.974Z,7.37
2019-02-15T22:30:15.463Z,7.40
2019-02-15T22:32:43.939Z,7.42
2019-02-15T22:35:12.559Z,7.40
2019-02-15T22:37:41.380Z,7.39
2019-02-15T22:40:29.668Z,7.38
2019-02-15T22:43:04.148Z,7.37
2019-02-15T22:45:32.652Z,7.36
2019-02-15T22:48:01.037Z,7.35
2019-02-15T22:50:35.761Z,7.33
2019-02-15T22:52:59.598Z,7.32
2019-02-15T22:55:28.060Z,7.30
2019-02-15T22:57:56.435Z,7.27
2019-02-15T23:00:32.369Z,7.25
2019-02-15T23:03:01.089Z,7.24
2019-02-15T23:05:29.545Z,7.23
2019-02-15T23:07:57.980Z,7.21
2019-02-15T23:10:26.530Z,7.21
2019-02-15T23:12:54.961Z,7.17
2019-02-15T23:15:23.438Z,7.17
2019-02-15T23:17:51.819Z,7.16
2019-02-15T23:20:20.279Z,7.12
2019-02-15T23:22:48.664Z,7.10
2019-02-15T23:25:17.064Z,7.08
2019-02-15T23:27:45.441Z,7.06
2019-02-15T23:30:13.819Z,7.06
2019-02-15T23:32:42.254Z,7.03
2019-02-15T23:35:11.012Z,7.01
2019-02-15T23:37:39.709Z,6.95
2019-02-15T23:40:08.138Z,6.96
2019-02-15T23:42:36.894Z,6.98
2019-02-15T23:45:06.008Z,6.95
2019-02-15T23:47:34.417Z,6.94
2019-02-15T23:50:02.803Z,6.92
2019-02-15T23:52:31.265Z,6.90
2019-02-15T23:55:01.499Z,6.89
2019-02-15T23:57:30.252Z,6.93
2019-02-15T23:59:59.074Z,6.91
